createdAt,value
2022-10-29T00:01:32.210Z,12.50
2022-10-29T00:04:04.048Z,14.00
2022-10-29T00:06:35.696Z,14.60
2022-10-29T00:09:14.568Z,13.30
2022-10-29T00:11:54.490Z,13.60
2022-10-29T00:14:29.352Z,13.70
2022-10-29T00:17:01.586Z,14.00
2022-10-29T00:19:33.203Z,14.30
2022-10-29T00:22:04.723Z,13.10
2022-10-29T00:24:36.334Z,13.50
2022-10-29T00:27:08.013Z,14.00
2022-10-29T00:29:39.583Z,13.00
2022-10-29T00:32:11.164Z,13.80
2022-10-29T00:34:42.823Z,13.00
2022-10-29T00:37:14.419Z,12.10
2022-10-29T00:39:45.996Z,13.10
2022-10-29T00:42:19.351Z,12.50
2022-10-29T00:44:51.328Z,13.10
2022-10-29T00:47:26.308Z,13.60
2022-10-29T00:50:02.445Z,13.60
2022-10-29T00:52:37.593Z,13.80
2022-10-29T00:55:15.340Z,12.90
2022-10-29T00:57:51.261Z,12.40
2022-10-29T01:00:24.184Z,12.50
2022-10-29T01:02:56.095Z,12.40
2022-10-29T01:05:29.143Z,11.70
2022-10-29T01:10:41.774Z,11.70
2022-10-29T01:13:27.327Z,11.70
2022-10-29T01:16:07.598Z,13.20
2022-10-29T01:18:45.231Z,11.30
2022-10-29T01:21:42.687Z,11.30
2022-10-29T01:24:51.540Z,11.80
2022-10-29T01:27:40.765Z,12.40
2022-10-29T01:30:20.216Z,11.60
2022-10-29T01:33:05.616Z,11.60
2022-10-29T01:35:47.387Z,11.50
2022-10-29T01:38:27.641Z,11.10
2022-10-29T01:41:07.260Z,11.20
2022-10-29T01:43:45.730Z,11.50
2022-10-29T01:46:22.712Z,12.30
2022-10-29T01:48:59.064Z,11.90
2022-10-29T01:51:34.028Z,11.60
2022-10-29T01:54:11.176Z,11.30
2022-10-29T01:56:42.825Z,11.10
2022-10-29T01:59:28.697Z,11.10
2022-10-29T02:05:12.553Z,11.20
2022-10-29T02:07:50.688Z,11.40
2022-10-29T02:10:27.802Z,11.20
2022-10-29T02:12:59.906Z,12.20
2022-10-29T02:15:36.466Z,11.70
2022-10-29T02:18:10.327Z,11.30
2022-10-29T02:20:46.884Z,13.00
2022-10-29T02:23:18.468Z,13.00
2022-10-29T02:25:50.159Z,11.10
2022-10-29T02:28:21.735Z,11.50
2022-10-29T02:30:53.349Z,11.10
2022-10-29T02:33:25.133Z,11.90
2022-10-29T02:35:56.720Z,12.20
2022-10-29T02:38:28.707Z,10.90
2022-10-29T02:41:00.235Z,11.80
2022-10-29T02:43:31.852Z,11.20
2022-10-29T02:46:20.879Z,11.30
2022-10-29T02:48:52.963Z,11.50
2022-10-29T02:51:24.846Z,11.20
2022-10-29T02:53:56.799Z,10.90
2022-10-29T02:56:28.560Z,10.20
2022-10-29T02:59:00.644Z,10.80
2022-10-29T03:01:32.450Z,11.70
2022-10-29T03:04:04.860Z,10.80
2022-10-29T03:06:36.577Z,10.90
2022-10-29T03:09:08.233Z,11.20
2022-10-29T03:11:39.793Z,10.90
2022-10-29T03:14:11.340Z,11.10
2022-10-29T03:16:43.015Z,10.90
2022-10-29T03:19:14.591Z,10.80
2022-10-29T03:21:46.187Z,10.40
2022-10-29T03:24:17.768Z,10.40
2022-10-29T03:26:49.422Z,9.90
2022-10-29T03:29:21.073Z,11.50
2022-10-29T03:31:52.824Z,10.70
2022-10-29T03:34:25.256Z,7.90
2022-10-29T03:36:56.783Z,10.70
2022-10-29T03:39:28.438Z,10.60
2022-10-29T03:42:00.456Z,10.30
2022-10-29T03:44:32.092Z,9.90
2022-10-29T03:47:03.644Z,10.00
2022-10-29T03:49:35.232Z,10.60
2022-10-29T03:52:07.113Z,9.90
2022-10-29T03:54:38.774Z,10.30
2022-10-29T03:57:10.470Z,12.40
2022-10-29T03:59:42.028Z,9.70
2022-10-29T04:02:13.926Z,11.10
2022-10-29T04:04:45.631Z,9.90
2022-10-29T04:07:17.236Z,10.10
2022-10-29T04:09:48.857Z,9.60
2022-10-29T04:12:20.611Z,9.50
2022-10-29T04:17:28.644Z,9.80
2022-10-29T04:20:00.367Z,8.80
2022-10-29T04:28:42.503Z,10.10
2022-10-29T04:31:09.470Z,9.40
2022-10-29T04:33:41.329Z,9.50
2022-10-29T04:36:13.465Z,10.80
2022-10-29T04:38:45.069Z,9.60
2022-10-29T04:41:16.669Z,10.00
2022-10-29T04:43:48.354Z,11.90
2022-10-29T04:46:19.989Z,10.80
2022-10-29T04:48:51.790Z,9.70
2022-10-29T04:51:26.201Z,10.80
2022-10-29T04:53:58.034Z,10.50
2022-10-29T04:56:30.111Z,9.60
2022-10-29T04:59:01.711Z,11.30
2022-10-29T05:04:05.443Z,10.90
2022-10-29T05:06:37.049Z,10.10
2022-10-29T05:09:08.820Z,10.60
2022-10-29T05:11:40.707Z,10.80
2022-10-29T05:14:12.259Z,10.60
2022-10-29T05:16:43.840Z,11.20
2022-10-29T05:19:15.444Z,10.20
2022-10-29T05:21:47.152Z,10.40
2022-10-29T05:24:18.988Z,11.00
2022-10-29T05:26:50.515Z,10.30
2022-10-29T05:29:22.096Z,12.40
2022-10-29T05:31:55.454Z,11.00
2022-10-29T05:34:27.172Z,11.90
2022-10-29T05:36:58.837Z,11.30
2022-10-29T05:39:30.531Z,11.50
2022-10-29T05:42:02.200Z,13.20
2022-10-29T05:44:33.847Z,11.80
2022-10-29T05:47:07.021Z,11.00
2022-10-29T05:49:39.063Z,12.00
2022-10-29T05:52:11.004Z,14.50
2022-10-29T05:54:42.769Z,12.30
2022-10-29T05:57:14.527Z,11.30
2022-10-29T05:59:46.094Z,14.10
2022-10-29T06:02:17.899Z,13.60
2022-10-29T06:04:49.574Z,12.40
2022-10-29T06:07:21.117Z,13.50
2022-10-29T06:09:52.751Z,13.30
2022-10-29T06:12:24.409Z,12.50
2022-10-29T06:14:55.947Z,12.80
2022-10-29T06:17:27.662Z,12.90
2022-10-29T06:19:59.633Z,12.10
2022-10-29T06:22:31.268Z,12.80
2022-10-29T06:25:02.894Z,14.10
2022-10-29T06:27:34.724Z,12.00
2022-10-29T06:30:08.391Z,13.80
2022-10-29T06:32:40.151Z,12.90
2022-10-29T06:35:12.271Z,12.50
2022-10-29T06:37:43.905Z,11.70
2022-10-29T06:40:15.718Z,14.00
2022-10-29T06:42:47.404Z,12.70
2022-10-29T06:45:19.259Z,12.30
2022-10-29T06:47:51.156Z,12.10
2022-10-29T06:50:23.347Z,13.60
2022-10-29T06:53:00.058Z,13.20
2022-10-29T06:55:33.485Z,12.60
2022-10-29T06:58:07.652Z,14.40
2022-10-29T07:00:39.479Z,13.00
2022-10-29T07:03:12.923Z,12.80
2022-10-29T07:05:44.768Z,13.40
2022-10-29T07:08:16.409Z,13.00
2022-10-29T07:10:51.461Z,12.20
2022-10-29T07:13:23.516Z,13.80
2022-10-29T07:15:55.330Z,13.00
2022-10-29T07:18:26.960Z,13.10
2022-10-29T07:20:58.758Z,12.60
2022-10-29T07:26:07.324Z,13.50
2022-10-29T07:28:38.952Z,14.30
2022-10-29T07:31:10.576Z,13.60
2022-10-29T07:33:42.316Z,14.20
2022-10-29T07:36:14.181Z,12.70
2022-10-29T07:38:46.064Z,13.70
2022-10-29T07:41:18.053Z,13.90
2022-10-29T07:43:50.991Z,14.30
2022-10-29T07:46:22.725Z,12.80
2022-10-29T07:48:54.226Z,13.50
2022-10-29T07:51:25.969Z,13.60
2022-10-29T07:53:57.564Z,11.30
2022-10-29T07:56:29.269Z,12.50
2022-10-29T07:59:01.001Z,14.20
2022-10-29T08:01:33.820Z,15.40
2022-10-29T08:04:05.812Z,14.90
2022-10-29T08:06:37.435Z,14.30
2022-10-29T08:09:09.329Z,13.00
2022-10-29T08:11:41.262Z,14.50
2022-10-29T08:14:14.965Z,14.30
2022-10-29T08:16:48.337Z,14.40
2022-10-29T08:19:20.001Z,13.60
2022-10-29T08:21:51.732Z,12.50
2022-10-29T08:24:23.767Z,14.40
2022-10-29T08:26:55.400Z,12.70
2022-10-29T08:29:27.033Z,14.00
2022-10-29T08:31:58.639Z,13.50
2022-10-29T08:34:31.056Z,13.80
2022-10-29T08:37:02.736Z,15.50
2022-10-29T08:39:34.348Z,14.10
2022-10-29T08:42:16.345Z,13.40
2022-10-29T08:45:06.631Z,13.70
2022-10-29T08:47:47.206Z,12.90
2022-10-29T08:50:25.627Z,12.30
2022-10-29T08:53:22.735Z,14.30
2022-10-29T08:55:49.539Z,13.50
2022-10-29T08:58:29.285Z,14.60
2022-10-29T09:01:01.464Z,13.20
2022-10-29T09:03:33.768Z,13.20
2022-10-29T09:06:12.372Z,13.00
2022-10-29T09:09:01.884Z,13.30
2022-10-29T09:11:48.652Z,12.90
2022-10-29T09:14:41.957Z,13.00
2022-10-29T09:17:22.030Z,12.50
2022-10-29T09:20:09.897Z,11.90
2022-10-29T09:22:52.101Z,12.20
2022-10-29T09:25:28.884Z,12.20
2022-10-29T09:28:15.937Z,11.70
2022-10-29T09:31:00.066Z,12.50
2022-10-29T09:33:32.995Z,11.70
2022-10-29T09:36:12.495Z,11.70
2022-10-29T09:38:53.788Z,11.70
2022-10-29T09:41:31.929Z,12.20
2022-10-29T09:44:12.240Z,11.70
2022-10-29T09:46:53.730Z,11.50
2022-10-29T09:49:40.606Z,11.30
2022-10-29T09:52:19.290Z,11.30
2022-10-29T09:54:52.560Z,10.70
2022-10-29T09:57:29.429Z,9.70
2022-10-29T10:00:03.582Z,11.70
2022-10-29T10:02:46.484Z,11.70
2022-10-29T10:05:28.615Z,10.90
2022-10-29T10:08:14.750Z,10.20
2022-10-29T10:10:57.556Z,10.40
2022-10-29T10:13:32.331Z,10.60
2022-10-29T10:16:06.052Z,10.00
2022-10-29T10:21:29.975Z,10.00
2022-10-29T10:24:30.508Z,9.10
2022-10-29T10:27:03.153Z,10.40
2022-10-29T10:29:34.849Z,8.90
2022-10-29T10:32:18.193Z,7.90
2022-10-29T10:34:49.937Z,9.30
2022-10-29T10:37:22.937Z,8.10
2022-10-29T10:40:01.611Z,7.60
2022-10-29T10:42:37.222Z,8.50
2022-10-29T10:45:23.957Z,8.20
2022-10-29T10:47:59.306Z,8.60
2022-10-29T10:50:33.969Z,7.70
2022-10-29T10:53:17.095Z,7.40
2022-10-29T10:55:52.767Z,7.80
2022-10-29T10:58:32.427Z,7.50
2022-10-29T11:01:11.172Z,7.50
2022-10-29T11:03:47.797Z,7.60
2022-10-29T11:06:22.716Z,8.20
2022-10-29T11:08:59.269Z,6.80
2022-10-29T11:11:36.061Z,7.00
2022-10-29T11:14:13.271Z,6.30
2022-10-29T11:16:49.908Z,5.70
2022-10-29T11:19:31.361Z,6.70
2022-10-29T11:22:16.648Z,5.30
2022-10-29T11:24:54.437Z,5.80
2022-10-29T11:27:36.687Z,5.80
2022-10-29T11:30:12.461Z,6.10
2022-10-29T11:32:56.039Z,5.90
2022-10-29T11:35:38.274Z,5.10
2022-10-29T11:38:17.805Z,5.70
2022-10-29T11:40:58.463Z,5.20
2022-10-29T11:43:30.108Z,6.20
2022-10-29T11:46:11.126Z,6.00
2022-10-29T11:48:56.460Z,6.00
2022-10-29T11:51:38.129Z,5.90
2022-10-29T11:54:27.464Z,5.10
2022-10-29T11:57:04.094Z,6.70
2022-10-29T11:59:51.869Z,5.70
2022-10-29T12:02:37.550Z,6.50
2022-10-29T12:05:18.506Z,6.20
2022-10-29T12:08:06.806Z,6.00
2022-10-29T12:10:51.852Z,5.70
2022-10-29T12:13:34.602Z,6.10
2022-10-29T12:16:19.354Z,5.50
2022-10-29T12:18:59.459Z,6.30
2022-10-29T12:21:41.277Z,5.90
2022-10-29T12:24:30.369Z,5.80
2022-10-29T12:27:10.811Z,7.10
2022-10-29T12:29:53.777Z,7.60
2022-10-29T12:32:32.061Z,6.30
2022-10-29T12:35:14.481Z,5.40
2022-10-29T12:38:02.093Z,5.70
2022-10-29T12:40:37.971Z,6.00
2022-10-29T12:43:17.366Z,6.70
2022-10-29T12:48:59.115Z,6.40
2022-10-29T12:51:41.860Z,5.50
2022-10-29T12:56:56.583Z,5.20
2022-10-29T12:59:37.216Z,5.60
2022-10-29T13:02:46.246Z,5.50
2022-10-29T13:05:20.871Z,6.10
2022-10-29T13:08:20.114Z,6.40
2022-10-29T13:10:57.964Z,4.70
2022-10-29T13:13:56.956Z,5.10
2022-10-29T13:16:32.161Z,5.70
2022-10-29T13:19:15.267Z,5.90
2022-10-29T13:22:35.813Z,5.50
2022-10-29T13:25:42.335Z,6.50
2022-10-29T13:28:50.466Z,7.60
2022-10-29T13:31:47.816Z,7.20
2022-10-29T13:34:53.866Z,6.50
2022-10-29T13:38:03.491Z,5.30
2022-10-29T13:41:11.944Z,4.90
2022-10-29T13:43:54.497Z,9.30
2022-10-29T13:46:45.744Z,7.00
2022-10-29T13:49:24.696Z,6.20
2022-10-29T13:52:01.520Z,5.40
2022-10-29T13:54:42.024Z,6.10
2022-10-29T13:57:23.819Z,6.10
2022-10-29T14:00:04.238Z,6.70
2022-10-29T14:02:55.292Z,6.80
2022-10-29T14:05:35.958Z,5.90
2022-10-29T14:08:18.363Z,6.30
2022-10-29T14:10:59.781Z,6.00
2022-10-29T14:13:42.336Z,6.10
2022-10-29T14:16:20.418Z,5.70
2022-10-29T14:18:54.060Z,7.10
2022-10-29T14:21:28.941Z,6.60
2022-10-29T14:24:02.766Z,7.20
2022-10-29T14:26:37.029Z,6.70
2022-10-29T14:29:19.787Z,6.70
2022-10-29T14:32:08.084Z,6.30
2022-10-29T14:34:41.760Z,5.90
2022-10-29T14:37:23.180Z,6.10
2022-10-29T14:39:58.810Z,6.30
2022-10-29T14:42:34.296Z,6.80
2022-10-29T14:45:08.709Z,7.10
2022-10-29T14:47:40.635Z,6.50
2022-10-29T14:50:19.722Z,7.50
2022-10-29T14:52:54.213Z,8.20
2022-10-29T14:55:28.217Z,10.20
2022-10-29T14:58:05.889Z,7.20
2022-10-29T15:00:38.317Z,7.20
2022-10-29T15:03:19.429Z,6.40
2022-10-29T15:05:52.598Z,7.40
2022-10-29T15:08:29.405Z,6.20
2022-10-29T15:11:01.171Z,6.10
2022-10-29T15:13:35.959Z,6.90
2022-10-29T15:16:11.477Z,6.90
2022-10-29T15:18:47.863Z,6.40
2022-10-29T15:21:24.894Z,6.50
2022-10-29T15:24:00.485Z,6.80
2022-10-29T15:26:35.849Z,6.50
2022-10-29T15:29:12.631Z,8.20
2022-10-29T15:31:49.512Z,7.70
2022-10-29T15:34:24.323Z,6.70
2022-10-29T15:36:57.752Z,6.70
2022-10-29T15:39:53.345Z,7.90
2022-10-29T15:42:27.724Z,8.10
2022-10-29T15:45:29.326Z,9.30
2022-10-29T15:48:30.955Z,8.20
2022-10-29T15:51:04.176Z,8.80
2022-10-29T15:53:36.100Z,8.30
2022-10-29T15:56:12.036Z,6.10
2022-10-29T15:58:44.131Z,10.40
2022-10-29T16:01:17.769Z,9.90
2022-10-29T16:03:49.668Z,10.00
2022-10-29T16:06:21.371Z,11.60
2022-10-29T16:08:55.670Z,11.20
2022-10-29T16:11:28.139Z,11.80
2022-10-29T16:14:00.319Z,10.90
2022-10-29T16:16:33.313Z,9.70
2022-10-29T16:19:04.958Z,11.30
2022-10-29T16:21:37.331Z,9.80
2022-10-29T16:24:14.843Z,9.40
2022-10-29T16:26:46.515Z,9.90
2022-10-29T16:29:18.539Z,9.60
2022-10-29T16:31:50.274Z,9.70
2022-10-29T16:34:23.824Z,9.60
2022-10-29T16:36:58.356Z,8.50
2022-10-29T16:39:30.175Z,9.80
2022-10-29T16:42:01.848Z,10.20
2022-10-29T16:44:33.806Z,9.30
2022-10-29T16:47:07.628Z,9.50
2022-10-29T16:49:39.554Z,10.90
2022-10-29T16:52:16.135Z,10.80
2022-10-29T16:54:50.983Z,10.50
2022-10-29T16:57:23.731Z,10.40
2022-10-29T17:02:25.693Z,11.10
2022-10-29T17:04:57.355Z,12.70
2022-10-29T17:07:29.007Z,12.20
2022-10-29T17:10:00.709Z,11.60
2022-10-29T17:12:32.933Z,12.10
2022-10-29T17:15:05.554Z,12.00
2022-10-29T17:17:39.895Z,14.50
2022-10-29T17:20:14.396Z,15.50
2022-10-29T17:22:46.394Z,17.40
2022-10-29T17:25:18.473Z,18.70
2022-10-29T17:27:50.297Z,19.00
2022-10-29T17:30:22.036Z,21.80
2022-10-29T17:32:53.791Z,22.20
2022-10-29T17:35:25.543Z,23.00
2022-10-29T17:37:57.313Z,20.90
2022-10-29T17:40:29.224Z,20.00
2022-10-29T17:43:00.962Z,20.10
2022-10-29T17:45:32.998Z,17.60
2022-10-29T17:48:04.900Z,18.10
2022-10-29T17:50:36.669Z,18.50
2022-10-29T17:53:08.401Z,18.70
2022-10-29T17:55:40.289Z,20.00
2022-10-29T17:58:17.690Z,18.50
2022-10-29T18:00:50.250Z,19.70
2022-10-29T18:03:25.660Z,19.90
2022-10-29T18:06:02.018Z,19.40
2022-10-29T18:08:35.945Z,18.30
2022-10-29T18:11:11.595Z,19.20
2022-10-29T18:13:46.028Z,19.50
2022-10-29T18:16:20.507Z,21.70
2022-10-29T18:19:01.162Z,21.30
2022-10-29T18:21:35.064Z,19.20
2022-10-29T18:24:09.657Z,19.40
2022-10-29T18:26:41.469Z,18.70
2022-10-29T18:29:14.921Z,19.50
2022-10-29T18:31:47.066Z,21.30
2022-10-29T18:34:18.884Z,19.80
2022-10-29T18:36:50.758Z,22.30
2022-10-29T18:39:24.017Z,22.30
2022-10-29T18:41:57.113Z,21.80
2022-10-29T18:44:29.143Z,24.00
2022-10-29T18:47:01.532Z,24.80
2022-10-29T18:49:33.646Z,26.30
2022-10-29T18:52:06.075Z,23.20
2022-10-29T18:54:38.033Z,24.20
2022-10-29T18:57:09.809Z,25.70
2022-10-29T18:59:41.693Z,26.50
2022-10-29T19:02:14.722Z,25.80
2022-10-29T19:04:46.644Z,24.20
2022-10-29T19:07:18.269Z,25.20
2022-10-29T19:09:50.414Z,26.80
2022-10-29T19:12:22.290Z,26.70
2022-10-29T19:14:55.008Z,26.00
2022-10-29T19:19:59.441Z,27.60
2022-10-29T19:22:33.261Z,30.00
2022-10-29T19:25:05.235Z,32.90
2022-10-29T19:27:36.910Z,30.10
2022-10-29T19:30:11.504Z,30.80
2022-10-29T19:32:43.187Z,32.80
2022-10-29T19:35:15.095Z,31.30
2022-10-29T19:37:46.818Z,26.90
2022-10-29T19:40:18.877Z,30.90
2022-10-29T19:42:50.545Z,32.20
2022-10-29T19:45:22.228Z,30.40
2022-10-29T19:47:54.881Z,30.70
2022-10-29T19:50:27.060Z,31.50
2022-10-29T19:52:59.101Z,30.90
2022-10-29T19:55:31.309Z,31.30
2022-10-29T19:58:03.042Z,21.80
2022-10-29T20:00:35.431Z,30.80
2022-10-29T20:03:07.166Z,27.30
2022-10-29T20:05:39.230Z,31.20
2022-10-29T20:08:14.793Z,28.80
2022-10-29T20:10:54.432Z,31.30
2022-10-29T20:13:26.447Z,30.60
2022-10-29T20:15:58.558Z,31.90
2022-10-29T20:18:30.223Z,30.00
2022-10-29T20:21:02.014Z,30.20
2022-10-29T20:23:33.941Z,31.70
2022-10-29T20:26:06.274Z,30.30
2022-10-29T20:28:39.407Z,34.70
2022-10-29T20:31:27.820Z,33.30
2022-10-29T20:34:02.981Z,34.50
2022-10-29T20:36:36.827Z,35.00
2022-10-29T20:39:09.099Z,34.20
2022-10-29T20:41:40.652Z,29.60
2022-10-29T20:44:12.396Z,28.00
2022-10-29T20:46:44.097Z,28.30
2022-10-29T20:49:15.828Z,31.90
2022-10-29T20:51:47.710Z,32.50
2022-10-29T20:54:19.414Z,37.20
2022-10-29T20:56:51.106Z,37.30
2022-10-29T20:59:22.725Z,36.80
2022-10-29T21:01:55.004Z,34.50
2022-10-29T21:04:26.927Z,36.70
2022-10-29T21:06:58.730Z,36.90
2022-10-29T21:09:30.385Z,35.00
2022-10-29T21:12:02.886Z,35.70
2022-10-29T21:17:05.735Z,32.80
2022-10-29T21:19:37.701Z,38.30
2022-10-29T21:22:09.397Z,36.60
2022-10-29T21:24:44.626Z,36.70
2022-10-29T21:27:17.760Z,37.00
2022-10-29T21:29:49.421Z,36.50
2022-10-29T21:32:21.134Z,35.90
2022-10-29T21:34:52.707Z,35.10
2022-10-29T21:37:24.385Z,34.60
2022-10-29T21:39:56.742Z,35.60
2022-10-29T21:42:30.784Z,37.10
2022-10-29T21:45:02.428Z,35.70
2022-10-29T21:47:34.261Z,35.70
2022-10-29T21:50:06.515Z,36.30
2022-10-29T21:52:39.185Z,34.60
2022-10-29T21:55:11.242Z,33.80
2022-10-29T21:57:45.250Z,25.40
2022-10-29T22:00:21.124Z,37.50
2022-10-29T22:02:52.829Z,36.20
2022-10-29T22:05:24.515Z,35.50
2022-10-29T22:07:58.467Z,35.50
2022-10-29T22:10:30.547Z,36.90
2022-10-29T22:13:02.885Z,39.50
2022-10-29T22:15:34.637Z,41.30
2022-10-29T22:18:06.366Z,39.90
2022-10-29T22:20:38.021Z,39.70
2022-10-29T22:23:09.852Z,42.40
2022-10-29T22:25:41.543Z,42.30
2022-10-29T22:28:13.149Z,43.50
2022-10-29T22:30:45.030Z,41.50
2022-10-29T22:33:16.983Z,41.00
2022-10-29T22:35:48.653Z,45.10
2022-10-29T22:38:20.300Z,44.00
2022-10-29T22:40:52.235Z,40.80
2022-10-29T22:43:24.486Z,42.50
2022-10-29T22:45:56.115Z,43.80
2022-10-29T22:48:27.800Z,43.00
2022-10-29T22:51:04.434Z,42.90
2022-10-29T22:53:36.839Z,40.40
2022-10-29T22:56:09.374Z,28.20
2022-10-29T22:58:41.079Z,39.30
2022-10-29T23:01:15.150Z,40.30
2022-10-29T23:03:47.729Z,39.20
2022-10-29T23:08:53.564Z,40.50
2022-10-29T23:11:27.023Z,41.40
2022-10-29T23:14:00.766Z,40.80
2022-10-29T23:16:34.888Z,44.40
2022-10-29T23:19:08.096Z,43.30
2022-10-29T23:21:39.791Z,42.50
2022-10-29T23:24:12.185Z,40.00
2022-10-29T23:26:44.577Z,40.80
2022-10-29T23:29:16.208Z,39.40
2022-10-29T23:31:48.025Z,40.40
2022-10-29T23:34:19.742Z,41.40
2022-10-29T23:41:54.484Z,38.10
2022-10-29T23:44:26.295Z,41.00
2022-10-29T23:46:57.892Z,40.90
2022-10-29T23:49:30.069Z,41.60
2022-10-29T23:52:01.679Z,42.60
2022-10-29T23:54:33.378Z,41.60
2022-10-29T23:57:05.158Z,47.00
2022-10-29T23:59:37.064Z,45.30
